Morland, Kansas
Current Conditions -  °F | °C
As of 6:53 PM on Monday 26 Jan 2015 (Local Time) from KHLC Reporting Station
Clear Clear  
Wind Chill: 53°   Ceiling: Unl
Heat Index: 53°   Visibility: 10mi
Dew Point: 28°   Wind: 6mph
Humidity: 38%   Direction: 330°NNW
Pressure: 30.07"   Gusts: NA
Location:  39.35°N, 100.08°W
Report Text: KHLC 270053Z AUTO 33005KT 10SM CLR 12/M02 A3007 RMK AO2 SLP185 T01171022
Loading
Personal Weather Stations






























Interactive Weather Map New forecast layout! Learn more

10-Day Weather Forecast

Advertisements
Track Severe Weather on mobile